Time;durP1;ratioP1;P1;durP2;ratioP2;P2;SDS_P1;SDS_P2;PMS_P1;PMS_P2;Temp;Humidity;BMP_temperature;BMP_pressure;BME280_temperature;BME280_humidity;BME280_pressure;Samples;Min_cycle;Max_cycle;Signal;HPM_P1;HPM_P2
2023/03/10 00:05:15;;;;;;;;;;;;;;;;;;5054585;28;6756;-66
2023/03/10 00:07:42;;;;;;;;;;;;;;;;;;5054347;28;7185;-66
2023/03/10 00:10:31;;;;;;;;;;;;;;;;;;5055130;28;7172;-66
2023/03/10 00:12:56;;;;;;;;;;;;;;;;;;5054603;28;6966;-66
2023/03/10 00:24:38;;;;;;;;;;;;;;;;;;5054637;28;6752;-66
2023/03/10 00:27:04;;;;;;;;;;;;;;;;;;5054450;28;7046;-66
2023/03/10 00:29:29;;;;;;;;;;;;;;;;;;5054089;28;6939;-66
2023/03/10 00:32:22;;;;;;;;;;;;;;;;;;5054048;28;6943;-66
2023/03/10 00:34:48;;;;;;;;;;;;;;;;;;5054933;28;7073;-66
2023/03/10 00:37:34;;;;;;;;;;;;;;;;;;5054433;28;7716;-66
2023/03/10 00:39:59;;;;;;;;;;;;;;;;;;5054609;28;7412;-70
2023/03/10 00:42:44;;;;;;;;;;;;;;;;;;5038652;28;9146;-70
2023/03/10 00:45:09;;;;;;;;;;;;;;;;;;5058369;28;7231;-69
2023/03/10 00:47:43;;;;;;;;;;;;;;;;;;5058331;28;6910;-70
2023/03/10 00:50:09;;;;;;;;;;;;;;;;;;5058515;28;7227;-69
2023/03/10 00:53:03;;;;;;;;;;;;;;;;;;5057877;28;7181;-69
2023/03/10 00:58:31;;;;;;;;;;;;;;;;;;5057938;28;6919;-69
2023/03/10 01:00:58;;;;;;;;;;;;;;;;;;5058607;28;7023;-69
2023/03/10 01:03:56;;;;;;;;;;;;;;;;;;5058006;28;7406;-70
2023/03/10 01:06:23;;;;;;;;;;;;;;;;;;5057605;28;7121;-69
2023/03/10 01:08:48;;;;;;;;;;;;;;;;;;5057939;28;6928;-69
2023/03/10 01:11:37;;;;;;;;;;;;;;;;;;5057896;28;7122;-69
2023/03/10 01:14:04;;;;;;;;;;;;;;;;;;5057720;28;7391;-69
2023/03/10 01:16:32;;;;;;;;;;;;;;;;;;5057779;28;7443;-69
2023/03/10 01:18:58;;;;;;;;;;;;;;;;;;5057342;28;7284;-69
2023/03/10 01:21:37;;;;;;;;;;;;;;;;;;5058506;28;7054;-69
2023/03/10 01:24:03;;;;;;;;;;;;;;;;;;5057490;28;7032;-69
2023/03/10 01:29:31;;;;;;;;;;;;;;;;;;5056781;28;6689;-70
2023/03/10 01:44:23;;;;;;;;;;;;;;;;;;5057005;28;6717;-69
2023/03/10 01:46:50;;;;;;;;;;;;;;;;;;5057148;28;7042;-70
2023/03/10 01:49:45;;;;;;;;;;;;;;;;;;5057199;28;7392;-70
2023/03/10 01:52:15;;;;;;;;;;;;;;;;;;5015933;28;7050;-70
2023/03/10 01:54:41;;;;;;;;;;;;;;;;;;5014548;28;7456;-70
2023/03/10 01:57:15;;;;;;;;;;;;;;;;;;5015557;28;7132;-70
2023/03/10 01:59:42;;;;;;;;;;;;;;;;;;5015285;28;7195;-69
2023/03/10 02:02:30;;;;;;;;;;;;;;;;;;5015932;28;7213;-69
2023/03/10 02:04:56;;;;;;;;;;;;;;;;;;5015104;28;7199;-69
2023/03/10 02:07:51;;;;;;;;;;;;;;;;;;5015784;28;7113;-69
2023/03/10 02:10:17;;;;;;;;;;;;;;;;;;5015303;28;7369;-70
2023/03/10 02:16:07;;;;;;;;;;;;;;;;;;5015077;28;7127;-70
2023/03/10 02:18:33;;;;;;;;;;;;;;;;;;5014766;28;7238;-69
2023/03/10 02:27:09;;;;;;;;;;;;;;;;;;5014772;28;6689;-70
2023/03/10 02:29:50;;;;;;;;;;;;;;;;;;5052013;28;8042;-70
2023/03/10 02:32:17;;;;;;;;;;;;;;;;;;5056061;28;7200;-70
2023/03/10 02:34:43;;;;;;;;;;;;;;;;;;5056303;28;7287;-70
2023/03/10 02:40:33;;;;;;;;;;;;;;;;;;5056174;28;7022;-70
2023/03/10 02:43:01;;;;;;;;;;;;;;;;;;5056076;28;7202;-70
2023/03/10 02:45:32;;;;;;;;;;;;;;;;;;5055779;28;6963;-70
2023/03/10 02:47:57;;;;;;;;;;;;;;;;;;5055740;28;8167;-70
2023/03/10 02:50:28;;;;;;;;;;;;;;;;;;5056027;28;7195;-66
2023/03/10 02:53:06;;;;;;;;;;;;;;;;;;5055856;28;7451;-66
2023/03/10 02:58:35;;;;;;;;;;;;;;;;;;5055556;28;7070;-66
2023/03/10 03:04:04;;;;;;;;;;;;;;;;;;5055288;28;7405;-66
2023/03/10 03:12:35;;;;;;;;;;;;;;;;;;5055456;28;6685;-66
2023/03/10 03:15:00;;;;;;;;;;;;;;;;;;5055292;28;6978;-66
2023/03/10 03:17:42;;;;;;;;;;;;;;;;;;5055512;28;7373;-65
2023/03/10 03:20:13;;;;;;;;;;;;;;;;;;5055439;28;7257;-66
2023/03/10 03:23:06;;;;;;;;;;;;;;;;;;5055343;28;7210;-65
2023/03/10 03:25:34;;;;;;;;;;;;;;;;;;5055501;28;7249;-66
2023/03/10 03:28:00;;;;;;;;;;;;;;;;;;5055355;28;7173;-66
2023/03/10 03:33:28;;;;;;;;;;;;;;;;;;5055121;28;6689;-65
2023/03/10 03:38:56;;;;;;;;;;;;;;;;;;5054666;28;6974;-66
2023/03/10 03:41:23;;;;;;;;;;;;;;;;;;5055046;28;6815;-66
2023/03/10 03:43:48;;;;;;;;;;;;;;;;;;5055052;28;7351;-66
2023/03/10 03:49:17;;;;;;;;;;;;;;;;;;5054772;28;6689;-65
2023/03/10 03:54:47;;;;;;;;;;;;;;;;;;5054789;28;6749;-65
2023/03/10 03:57:13;;;;;;;;;;;;;;;;;;5055811;28;6919;-66
2023/03/10 03:59:39;;;;;;;;;;;;;;;;;;5055450;28;7144;-66
2023/03/10 04:02:04;;;;;;;;;;;;;;;;;;5036854;28;7133;-65
2023/03/10 04:07:33;;;;;;;;;;;;;;;;;;5054537;28;7029;-65
2023/03/10 04:13:02;;;;;;;;;;;;;;;;;;5054440;28;6681;-66
2023/03/10 04:15:28;;;;;;;;;;;;;;;;;;5054945;28;6832;-66
2023/03/10 04:18:13;;;;;;;;;;;;;;;;;;5054209;28;7407;-66
2023/03/10 04:20:39;;;;;;;;;;;;;;;;;;5054565;28;7143;-65
2023/03/10 04:29:10;;;;;;;;;;;;;;;;;;5053948;28;6923;-65
2023/03/10 04:31:36;;;;;;;;;;;;;;;;;;5054575;28;7202;-66
2023/03/10 04:34:01;;;;;;;;;;;;;;;;;;5054404;28;7132;-65
2023/03/10 04:36:27;;;;;;;;;;;;;;;;;;5054545;28;7102;-65
2023/03/10 04:38:53;;;;;;;;;;;;;;;;;;5054299;28;7157;-65
2023/03/10 04:44:21;;;;;;;;;;;;;;;;;;5054208;28;7010;-65
2023/03/10 04:49:49;;;;;;;;;;;;;;;;;;5053232;28;6994;-69
2023/03/10 04:52:41;;;;;;;;;;;;;;;;;;5039168;28;7230;-69
2023/03/10 04:55:07;;;;;;;;;;;;;;;;;;5049387;28;7185;-69
2023/03/10 04:57:33;;;;;;;;;;;;;;;;;;5053889;28;7881;-69
2023/03/10 04:59:58;;;;;;;;;;;;;;;;;;5053829;28;8493;-69
2023/03/10 05:02:39;;;;;;;;;;;;;;;;;;5054176;28;7015;-69
2023/03/10 05:05:05;;;;;;;;;;;;;;;;;;5053691;28;7150;-69
2023/03/10 05:10:42;;;;;;;;;;;;;;;;;;5053775;28;6749;-70
2023/03/10 05:13:11;;;;;;;;;;;;;;;;;;5053540;28;7103;-69
2023/03/10 05:15:42;;;;;;;;;;;;;;;;;;5054063;28;7595;-69
2023/03/10 05:18:10;;;;;;;;;;;;;;;;;;5053636;28;7039;-69
2023/03/10 05:20:36;;;;;;;;;;;;;;;;;;5053855;28;6902;-69
2023/03/10 05:23:01;;;;;;;;;;;;;;;;;;5053579;28;7100;-69
2023/03/10 05:26:03;;;;;;;;;;;;;;;;;;5052484;28;8411;-69
2023/03/10 05:28:29;;;;;;;;;;;;;;;;;;5054062;28;7011;-69
2023/03/10 05:30:54;;;;;;;;;;;;;;;;;;5057025;28;7084;-69
2023/03/10 05:39:24;;;;;;;;;;;;;;;;;;5058311;28;6938;-69
2023/03/10 05:41:50;;;;;;;;;;;;;;;;;;5057306;28;7035;-69
2023/03/10 05:44:15;;;;;;;;;;;;;;;;;;5057105;28;6798;-69
2023/03/10 05:47:17;;;;;;;;;;;;;;;;;;5057299;28;7144;-70
2023/03/10 05:49:44;;;;;;;;;;;;;;;;;;5057320;28;7211;-70
2023/03/10 05:52:17;;;;;;;;;;;;;;;;;;5057108;28;7208;-69
2023/03/10 05:54:42;;;;;;;;;;;;;;;;;;5057218;28;6797;-69
2023/03/10 06:00:32;;;;;;;;;;;;;;;;;;5056826;28;6685;-69
2023/03/10 06:02:58;;;;;;;;;;;;;;;;;;5056664;28;7187;-71
2023/03/10 06:05:23;;;;;;;;;;;;;;;;;;5056928;28;7115;-70
2023/03/10 06:07:50;;;;;;;;;;;;;;;;;;5056846;28;7194;-68
2023/03/10 06:10:15;;;;;;;;;;;;;;;;;;5055057;28;8476;-67
2023/03/10 06:13:11;;;;;;;;;;;;;;;;;;5056011;28;6928;-67
2023/03/10 06:15:39;;;;;;;;;;;;;;;;;;5038709;28;8410;-67
2023/03/10 06:18:04;;;;;;;;;;;;;;;;;;5035600;28;7093;-68
2023/03/10 06:26:36;;;;;;;;;;;;;;;;;;5036498;28;6689;-66
2023/03/10 06:29:02;;;;;;;;;;;;;;;;;;5036296;28;7093;-67
2023/03/10 06:31:28;;;;;;;;;;;;;;;;;;5036212;28;7410;-67
2023/03/10 06:33:59;;;;;;;;;;;;;;;;;;5036341;28;7158;-67
2023/03/10 06:36:27;;;;;;;;;;;;;;;;;;5036414;28;7238;-67
2023/03/10 06:38:53;;;;;;;;;;;;;;;;;;5036336;28;7658;-67
2023/03/10 06:41:20;;;;;;;;;;;;;;;;;;5073423;22;7025;-68
2023/03/10 06:43:46;;;;;;;;;;;;;;;;;;5014385;28;6932;-69
2023/03/10 06:46:13;;;;;;;;;;;;;;;;;;5016352;28;7062;-69
2023/03/10 06:48:39;;;;;;;;;;;;;;;;;;5016130;28;6962;-69
2023/03/10 06:51:06;;;;;;;;;;;;;;;;;;5016540;28;7267;-70
2023/03/10 06:53:31;;;;;;;;;;;;;;;;;;5015713;28;7899;-69
2023/03/10 06:56:30;;;;;;;;;;;;;;;;;;5016304;28;7467;-69
2023/03/10 06:59:16;;;;;;;;;;;;;;;;;;4994200;28;7090;-69
2023/03/10 07:01:42;;;;;;;;;;;;;;;;;;5016094;28;7108;-69
2023/03/10 07:04:09;;;;;;;;;;;;;;;;;;5017204;28;7050;-69
2023/03/10 07:06:35;;;;;;;;;;;;;;;;;;5016279;28;7067;-69
2023/03/10 07:09:00;;;;;;;;;;;;;;;;;;5016034;28;7486;-69
2023/03/10 07:11:26;;;;;;;;;;;;;;;;;;5015917;28;6911;-69
2023/03/10 07:13:57;;;;;;;;;;;;;;;;;;5015773;28;7127;-69
2023/03/10 07:16:23;;;;;;;;;;;;;;;;;;5015479;28;7297;-69
2023/03/10 07:21:51;;;;;;;;;;;;;;;;;;5015500;28;6809;-68
2023/03/10 07:24:17;;;;;;;;;;;;;;;;;;5015763;28;7158;-69
2023/03/10 07:26:42;;;;;;;;;;;;;;;;;;5015441;28;6963;-69
2023/03/10 07:38:12;;;;;;;;;;;;;;;;;;5015529;28;6908;-70
2023/03/10 07:40:39;;;;;;;;;;;;;;;;;;5013863;28;7060;-69
2023/03/10 07:43:05;;;;;;;;;;;;;;;;;;5014848;28;7979;-68
2023/03/10 07:45:43;;;;;;;;;;;;;;;;;;5015365;28;7026;-68
2023/03/10 07:48:10;;;;;;;;;;;;;;;;;;5015409;28;7174;-68
2023/03/10 07:50:35;;;;;;;;;;;;;;;;;;5028126;28;7437;-68
2023/03/10 07:53:01;;;;;;;;;;;;;;;;;;5034370;28;7091;-68
2023/03/10 07:55:26;;;;;;;;;;;;;;;;;;5035402;28;7264;-68
2023/03/10 07:58:02;;;;;;;;;;;;;;;;;;5035087;28;6908;-68
2023/03/10 08:00:33;;;;;;;;;;;;;;;;;;5065722;22;7424;-67
2023/03/10 08:02:59;;;;;;;;;;;;;;;;;;5015360;28;7134;-68
2023/03/10 08:08:27;;;;;;;;;;;;;;;;;;5014922;28;6931;-68
2023/03/10 08:13:56;;;;;;;;;;;;;;;;;;5014742;28;8261;-68
2023/03/10 08:16:33;;;;;;;;;;;;;;;;;;5014994;28;7101;-68
2023/03/10 08:18:59;;;;;;;;;;;;;;;;;;5015130;28;6938;-68
2023/03/10 08:21:24;;;;;;;;;;;;;;;;;;5014944;28;7361;-68
2023/03/10 08:23:50;;;;;;;;;;;;;;;;;;5014538;28;6938;-69
2023/03/10 08:26:28;;;;;;;;;;;;;;;;;;5014818;28;7045;-69
2023/03/10 08:28:53;;;;;;;;;;;;;;;;;;5042623;28;8644;-69
2023/03/10 08:31:28;;;;;;;;;;;;;;;;;;5014917;28;7233;-69
2023/03/10 08:34:03;;;;;;;;;;;;;;;;;;5014781;28;7004;-69
2023/03/10 08:36:29;;;;;;;;;;;;;;;;;;5014418;28;7191;-69
2023/03/10 08:38:56;;;;;;;;;;;;;;;;;;5015494;28;7057;-69
2023/03/10 08:41:23;;;;;;;;;;;;;;;;;;5014705;28;7046;-69
2023/03/10 08:43:50;;;;;;;;;;;;;;;;;;5014747;28;6976;-69
2023/03/10 08:46:17;;;;;;;;;;;;;;;;;;5014608;28;7391;-69
2023/03/10 08:48:43;;;;;;;;;;;;;;;;;;5014737;28;7026;-69
2023/03/10 08:51:08;;;;;;;;;;;;;;;;;;5015090;28;7438;-69
2023/03/10 08:54:07;;;;;;;;;;;;;;;;;;5014291;28;7103;-69
2023/03/10 08:56:33;;;;;;;;;;;;;;;;;;5015419;28;7271;-69
2023/03/10 09:02:02;;;;;;;;;;;;;;;;;;5030764;28;6972;-69
2023/03/10 09:10:35;;;;;;;;;;;;;;;;;;5037795;28;6900;-69
2023/03/10 09:13:16;;;;;;;;;;;;;;;;;;5037885;28;7240;-69
2023/03/10 09:15:41;;;;;;;;;;;;;;;;;;5036895;28;7337;-69
2023/03/10 09:18:14;;;;;;;;;;;;;;;;;;5038035;28;6929;-69
2023/03/10 09:20:41;;;;;;;;;;;;;;;;;;5037779;28;6804;-69
2023/03/10 09:23:17;;;;;;;;;;;;;;;;;;5036971;28;7042;-69
2023/03/10 09:25:43;;;;;;;;;;;;;;;;;;5036546;28;7380;-69
2023/03/10 09:31:20;;;;;;;;;;;;;;;;;;5037751;28;6689;-69
2023/03/10 09:33:45;;;;;;;;;;;;;;;;;;5019690;28;8430;-69
2023/03/10 09:39:13;;;;;;;;;;;;;;;;;;5037343;28;6677;-69
2023/03/10 09:44:37;;;;;;;;;;;;;;;;;;5038256;28;6970;-69
2023/03/10 09:47:29;;;;;;;;;;;;;;;;;;5037402;28;6990;-69
2023/03/10 09:50:32;;;;;;;;;;;;;;;;;;5034687;28;7035;-69
2023/03/10 09:52:57;;;;;;;;;;;;;;;;;;5033973;28;7089;-68
2023/03/10 09:55:34;;;;;;;;;;;;;;;;;;5020523;28;7160;-68
2023/03/10 09:58:12;;;;;;;;;;;;;;;;;;5000374;28;7091;-69
2023/03/10 10:09:52;;;;;;;;;;;;;;;;;;5017308;28;6681;-68
2023/03/10 10:12:30;;;;;;;;;;;;;;;;;;5017196;28;7015;-68
2023/03/10 10:14:58;;;;;;;;;;;;;;;;;;5016567;28;7139;-68
2023/03/10 10:17:29;;;;;;;;;;;;;;;;;;5016938;28;7163;-68
2023/03/10 10:19:56;;;;;;;;;;;;;;;;;;5016901;28;7260;-69
2023/03/10 10:22:40;;;;;;;;;;;;;;;;;;5017320;28;6950;-69
2023/03/10 10:25:09;;;;;;;;;;;;;;;;;;5016337;28;6963;-68
2023/03/10 10:27:44;;;;;;;;;;;;;;;;;;5009567;28;8740;-68
2023/03/10 10:30:26;;;;;;;;;;;;;;;;;;5036591;28;7123;-69
2023/03/10 10:33:16;;;;;;;;;;;;;;;;;;5036516;28;7212;-69
2023/03/10 10:41:48;;;;;;;;;;;;;;;;;;5036203;28;6681;-68
2023/03/10 10:44:16;;;;;;;;;;;;;;;;;;5036205;28;7637;-68
2023/03/10 10:46:55;;;;;;;;;;;;;;;;;;5036326;28;7151;-68
2023/03/10 10:49:22;;;;;;;;;;;;;;;;;;5037308;28;7120;-69
2023/03/10 10:51:59;;;;;;;;;;;;;;;;;;5036100;28;6941;-69
2023/03/10 10:54:40;;;;;;;;;;;;;;;;;;5036145;28;7132;-69
2023/03/10 10:57:28;;;;;;;;;;;;;;;;;;5036161;28;6921;-69
2023/03/10 10:59:53;;;;;;;;;;;;;;;;;;5035609;28;7020;-69
2023/03/10 11:05:17;;;;;;;;;;;;;;;;;;5036275;28;6974;-69
2023/03/10 11:07:43;;;;;;;;;;;;;;;;;;5035905;28;7202;-69
2023/03/10 11:10:37;;;;;;;;;;;;;;;;;;5035549;28;6946;-68
2023/03/10 11:13:08;;;;;;;;;;;;;;;;;;5035685;28;7326;-68
2023/03/10 11:15:36;;;;;;;;;;;;;;;;;;5035728;28;7198;-69
2023/03/10 11:18:34;;;;;;;;;;;;;;;;;;5035735;28;7150;-69
2023/03/10 11:24:02;;;;;;;;;;;;;;;;;;5035085;28;6920;-69
2023/03/10 11:30:08;;;;;;;;;;;;;;;;;;5035833;28;6884;-69
2023/03/10 11:35:44;;;;;;;;;;;;;;;;;;5035836;28;6796;-69
2023/03/10 11:38:15;;;;;;;;;;;;;;;;;;5035820;28;7235;-68
2023/03/10 11:46:49;;;;;;;;;;;;;;;;;;5035044;28;7035;-68
2023/03/10 11:49:18;;;;;;;;;;;;;;;;;;5035036;28;7115;-68
2023/03/10 11:54:50;;;;;;;;;;;;;;;;;;5034786;28;6991;-69
2023/03/10 12:00:28;;;;;;;;;;;;;;;;;;5082574;23;7556;-64
2023/03/10 12:06:31;;;;;;;;;;;;;;;;;;5034812;28;6689;-63
2023/03/10 12:09:01;;;;;;;;;;;;;;;;;;5034852;28;7258;-63
2023/03/10 12:11:28;;;;;;;;;;;;;;;;;;5035484;28;6951;-63
2023/03/10 12:16:48;;;;;;;;;;;;;;;;;;5034761;28;6928;-63
2023/03/10 12:19:19;;;;;;;;;;;;;;;;;;5034802;28;6957;-63
2023/03/10 12:22:13;;;;;;;;;;;;;;;;;;5034313;28;7292;-64
2023/03/10 12:24:46;;;;;;;;;;;;;;;;;;5034467;28;6823;-64
2023/03/10 12:27:12;;;;;;;;;;;;;;;;;;5034377;28;7342;-63
2023/03/10 12:29:49;;;;;;;;;;;;;;;;;;5034714;28;7154;-64
2023/03/10 12:32:33;;;;;;;;;;;;;;;;;;5034309;28;7203;-64
2023/03/10 12:35:17;;;;;;;;;;;;;;;;;;5017884;28;8374;-63
2023/03/10 12:37:43;;;;;;;;;;;;;;;;;;5035817;28;7232;-64
2023/03/10 12:42:55;;;;;;;;;;;;;;;;;;5033998;28;7063;-68
2023/03/10 12:45:44;;;;;;;;;;;;;;;;;;5038346;28;7152;-68
2023/03/10 12:48:17;;;;;;;;;;;;;;;;;;5020683;28;8458;-68
2023/03/10 12:54:03;;;;;;;;;;;;;;;;;;5039150;28;7151;-68
2023/03/10 12:56:41;;;;;;;;;;;;;;;;;;5038417;28;7126;-68
2023/03/10 13:02:22;;;;;;;;;;;;;;;;;;5038001;28;6932;-68
2023/03/10 13:04:49;;;;;;;;;;;;;;;;;;5038225;28;7188;-68
2023/03/10 13:07:16;;;;;;;;;;;;;;;;;;5038130;28;7112;-68
2023/03/10 13:09:58;;;;;;;;;;;;;;;;;;5038397;28;7118;-68
2023/03/10 13:15:30;;;;;;;;;;;;;;;;;;5037973;28;7708;-68
2023/03/10 13:18:24;;;;;;;;;;;;;;;;;;5037933;28;7079;-68
2023/03/10 13:23:52;;;;;;;;;;;;;;;;;;4976811;28;6941;-68
2023/03/10 13:26:18;;;;;;;;;;;;;;;;;;4976944;28;7267;-68
2023/03/10 13:29:19;;;;;;;;;;;;;;;;;;4978070;28;7241;-68
2023/03/10 13:31:52;;;;;;;;;;;;;;;;;;4976870;28;7277;-68
2023/03/10 13:34:19;;;;;;;;;;;;;;;;;;4976728;28;7436;-68
2023/03/10 13:37:05;;;;;;;;;;;;;;;;;;4976775;28;7036;-68
2023/03/10 13:39:30;;;;;;;;;;;;;;;;;;4977421;28;7206;-68
2023/03/10 13:41:58;;;;;;;;;;;;;;;;;;4976591;28;7163;-68
2023/03/10 13:44:26;;;;;;;;;;;;;;;;;;4976615;28;7241;-68
2023/03/10 13:46:53;;;;;;;;;;;;;;;;;;4977055;28;7099;-68
2023/03/10 13:52:24;;;;;;;;;;;;;;;;;;4976506;28;6678;-68
2023/03/10 13:57:53;;;;;;;;;;;;;;;;;;5022571;28;7030;-68
2023/03/10 14:00:22;;;;;;;;;;;;;;;;;;5037461;28;7303;-68
2023/03/10 14:03:01;;;;;;;;;;;;;;;;;;5037052;28;7107;-68
2023/03/10 14:05:38;;;;;;;;;;;;;;;;;;5037127;28;7156;-68
2023/03/10 14:08:04;;;;;;;;;;;;;;;;;;5037053;28;7178;-68
2023/03/10 14:10:30;;;;;;;;;;;;;;;;;;5037938;28;6944;-68
2023/03/10 14:12:55;;;;;;;;;;;;;;;;;;5036826;28;7360;-68
2023/03/10 14:18:26;;;;;;;;;;;;;;;;;;5036624;28;6674;-68
2023/03/10 14:20:52;;;;;;;;;;;;;;;;;;5036717;28;7182;-68
2023/03/10 14:23:17;;;;;;;;;;;;;;;;;;5018873;28;7088;-68
2023/03/10 14:25:44;;;;;;;;;;;;;;;;;;5037105;28;7023;-68
2023/03/10 14:28:12;;;;;;;;;;;;;;;;;;5036276;28;7315;-68
2023/03/10 14:30:39;;;;;;;;;;;;;;;;;;5036311;28;7146;-68
2023/03/10 14:33:25;;;;;;;;;;;;;;;;;;5036529;28;7314;-68
2023/03/10 14:35:50;;;;;;;;;;;;;;;;;;5036168;28;7209;-69
2023/03/10 14:38:52;;;;;;;;;;;;;;;;;;5037513;28;7172;-68
2023/03/10 14:41:22;;;;;;;;;;;;;;;;;;5036352;28;7191;-68
2023/03/10 14:43:48;;;;;;;;;;;;;;;;;;5036264;28;7203;-68
2023/03/10 14:46:17;;;;;;;;;;;;;;;;;;5036897;28;6798;-68
2023/03/10 14:48:44;;;;;;;;;;;;;;;;;;5035980;28;7015;-68
2023/03/10 14:51:24;;;;;;;;;;;;;;;;;;5035410;28;7102;-68
2023/03/10 14:53:49;;;;;;;;;;;;;;;;;;5035460;28;6991;-68
2023/03/10 14:56:18;;;;;;;;;;;;;;;;;;5036929;28;7046;-68
2023/03/10 14:59:00;;;;;;;;;;;;;;;;;;5036016;28;7036;-68
2023/03/10 15:01:26;;;;;;;;;;;;;;;;;;5035633;28;7327;-68
2023/03/10 15:06:56;;;;;;;;;;;;;;;;;;5089182;23;8673;-64
2023/03/10 15:09:21;;;;;;;;;;;;;;;;;;5055792;28;7220;-64
2023/03/10 15:15:03;;;;;;;;;;;;;;;;;;5075528;28;6717;-63
2023/03/10 15:17:29;;;;;;;;;;;;;;;;;;5075740;28;6800;-64
2023/03/10 15:19:54;;;;;;;;;;;;;;;;;;5076156;28;7251;-64
2023/03/10 15:22:20;;;;;;;;;;;;;;;;;;5075377;28;7276;-64
2023/03/10 15:24:45;;;;;;;;;;;;;;;;;;5075586;28;7256;-64
2023/03/10 15:27:12;;;;;;;;;;;;;;;;;;5075097;28;8022;-63
2023/03/10 15:29:38;;;;;;;;;;;;;;;;;;5075480;28;6923;-63
2023/03/10 15:32:04;;;;;;;;;;;;;;;;;;5075397;28;7382;-64
2023/03/10 15:34:30;;;;;;;;;;;;;;;;;;5076067;28;7265;-64
2023/03/10 15:37:07;;;;;;;;;;;;;;;;;;5057311;28;8588;-64
2023/03/10 15:39:33;;;;;;;;;;;;;;;;;;5074931;28;7128;-64
2023/03/10 15:41:59;;;;;;;;;;;;;;;;;;5076151;28;7131;-64
2023/03/10 15:44:24;;;;;;;;;;;;;;;;;;5075229;28;7036;-64
2023/03/10 15:46:53;;;;;;;;;;;;;;;;;;5075179;28;7143;-64
2023/03/10 15:52:22;;;;;;;;;;;;;;;;;;5074716;28;7129;-64
2023/03/10 15:55:15;;;;;;;;;;;;;;;;;;5075016;28;7416;-63
2023/03/10 15:57:42;;;;;;;;;;;;;;;;;;5075052;28;7335;-63
2023/03/10 16:00:08;;;;;;;;;;;;;;;;;;5075475;28;7137;-63
2023/03/10 16:02:34;;;;;;;;;;;;;;;;;;5074754;28;7332;-63
2023/03/10 16:05:00;;;;;;;;;;;;;;;;;;5074653;28;7163;-63
2023/03/10 16:07:41;;;;;;;;;;;;;;;;;;5074859;28;7009;-63
2023/03/10 16:16:49;;;;;;;;;;;;;;;;;;5074484;28;6693;-63
2023/03/10 16:19:14;;;;;;;;;;;;;;;;;;5074516;28;7153;-63
2023/03/10 16:22:16;;;;;;;;;;;;;;;;;;5074645;28;7243;-63
2023/03/10 16:24:42;;;;;;;;;;;;;;;;;;5075694;28;7495;-63
2023/03/10 16:27:07;;;;;;;;;;;;;;;;;;5075086;28;7180;-62
2023/03/10 16:29:33;;;;;;;;;;;;;;;;;;5074436;28;7200;-62
2023/03/10 16:31:58;;;;;;;;;;;;;;;;;;5075001;28;7188;-63
2023/03/10 16:34:24;;;;;;;;;;;;;;;;;;5074486;28;7443;-63
2023/03/10 16:42:56;;;;;;;;;;;;;;;;;;5074276;28;6920;-63
2023/03/10 16:45:33;;;;;;;;;;;;;;;;;;5074392;28;6938;-62
2023/03/10 16:47:59;;;;;;;;;;;;;;;;;;5056589;28;8555;-63
2023/03/10 16:50:24;;;;;;;;;;;;;;;;;;5074086;28;7181;-63
2023/03/10 16:52:55;;;;;;;;;;;;;;;;;;5074283;28;7141;-63
2023/03/10 16:55:20;;;;;;;;;;;;;;;;;;5074402;28;7078;-62
2023/03/10 17:00:39;;;;;;;;;;;;;;;;;;5074420;28;6991;-63
2023/03/10 17:03:29;;;;;;;;;;;;;;;;;;5074178;28;7332;-62
2023/03/10 17:09:05;;;;;;;;;;;;;;;;;;5074001;28;6684;-63
2023/03/10 17:14:33;;;;;;;;;;;;;;;;;;5053874;28;7484;-63
2023/03/10 17:20:03;;;;;;;;;;;;;;;;;;5053854;28;6912;-63
2023/03/10 17:25:31;;;;;;;;;;;;;;;;;;5057326;28;6689;-62
2023/03/10 17:27:59;;;;;;;;;;;;;;;;;;5057638;28;6923;-62
2023/03/10 17:30:24;;;;;;;;;;;;;;;;;;5057754;28;7175;-63
2023/03/10 17:32:50;;;;;;;;;;;;;;;;;;5057467;28;6993;-63
2023/03/10 17:38:18;;;;;;;;;;;;;;;;;;5057336;28;6892;-63
2023/03/10 17:40:44;;;;;;;;;;;;;;;;;;5057459;28;7318;-63
2023/03/10 17:43:09;;;;;;;;;;;;;;;;;;5057263;28;6913;-63
2023/03/10 17:45:41;;;;;;;;;;;;;;;;;;5057062;28;6833;-63
2023/03/10 17:48:06;;;;;;;;;;;;;;;;;;5056950;28;7215;-63
2023/03/10 17:50:32;;;;;;;;;;;;;;;;;;5056809;28;7929;-63
2023/03/10 17:52:57;;;;;;;;;;;;;;;;;;5061809;28;7134;-63
2023/03/10 17:55:22;;;;;;;;;;;;;;;;;;5077014;28;7069;-63
2023/03/10 17:57:48;;;;;;;;;;;;;;;;;;5077039;28;7086;-63
2023/03/10 18:00:40;;;;;;;;;;;;;;;;;;5077014;28;7230;-63
2023/03/10 18:03:06;;;;;;;;;;;;;;;;;;5076656;28;7123;-63
2023/03/10 18:05:31;;;;;;;;;;;;;;;;;;5075349;28;6916;-63
2023/03/10 18:07:58;;;;;;;;;;;;;;;;;;5076977;28;7477;-63
2023/03/10 18:10:24;;;;;;;;;;;;;;;;;;5077014;28;7058;-63
2023/03/10 18:12:50;;;;;;;;;;;;;;;;;;5076949;28;6940;-63
2023/03/10 18:15:17;;;;;;;;;;;;;;;;;;5076849;28;7130;-63
2023/03/10 18:17:42;;;;;;;;;;;;;;;;;;5077221;28;7364;-63
2023/03/10 18:23:11;;;;;;;;;;;;;;;;;;5076543;28;6685;-63
2023/03/10 18:25:59;;;;;;;;;;;;;;;;;;5076301;28;6964;-63
2023/03/10 18:28:25;;;;;;;;;;;;;;;;;;5076678;28;7028;-63
2023/03/10 18:30:51;;;;;;;;;;;;;;;;;;5076584;28;7136;-63
2023/03/10 18:33:18;;;;;;;;;;;;;;;;;;5076543;28;7074;-63
2023/03/10 18:35:45;;;;;;;;;;;;;;;;;;5075992;28;7204;-63
2023/03/10 18:38:35;;;;;;;;;;;;;;;;;;5076103;28;7023;-63
2023/03/10 18:41:02;;;;;;;;;;;;;;;;;;5076206;28;6910;-63
2023/03/10 18:43:28;;;;;;;;;;;;;;;;;;5076166;28;7148;-63
2023/03/10 18:46:07;;;;;;;;;;;;;;;;;;5076255;28;6873;-63
2023/03/10 18:51:35;;;;;;;;;;;;;;;;;;5075995;28;6689;-63
2023/03/10 18:54:01;;;;;;;;;;;;;;;;;;5076852;28;7128;-63
2023/03/10 18:56:28;;;;;;;;;;;;;;;;;;5075097;28;6995;-63
2023/03/10 18:58:53;;;;;;;;;;;;;;;;;;5056671;28;6985;-63
2023/03/10 19:04:22;;;;;;;;;;;;;;;;;;5055564;28;6748;-63
2023/03/10 19:06:48;;;;;;;;;;;;;;;;;;5069642;28;7180;-63
2023/03/10 19:12:16;;;;;;;;;;;;;;;;;;5075831;28;6700;-63
2023/03/10 19:15:17;;;;;;;;;;;;;;;;;;5075618;28;7175;-63
2023/03/10 19:17:43;;;;;;;;;;;;;;;;;;5075671;28;7190;-63
2023/03/10 19:20:10;;;;;;;;;;;;;;;;;;5075555;28;7089;-63
2023/03/10 19:23:10;;;;;;;;;;;;;;;;;;5075579;28;7202;-63
2023/03/10 19:25:36;;;;;;;;;;;;;;;;;;5076356;28;7229;-63
2023/03/10 19:28:01;;;;;;;;;;;;;;;;;;5075523;28;7063;-63
2023/03/10 19:30:27;;;;;;;;;;;;;;;;;;5075480;28;7169;-62
2023/03/10 19:33:03;;;;;;;;;;;;;;;;;;5075288;28;7000;-63
2023/03/10 19:35:29;;;;;;;;;;;;;;;;;;5075407;28;6962;-63
2023/03/10 19:37:54;;;;;;;;;;;;;;;;;;5074982;28;7374;-63
2023/03/10 19:43:23;;;;;;;;;;;;;;;;;;5075008;28;6927;-63
2023/03/10 19:48:51;;;;;;;;;;;;;;;;;;5074106;28;6987;-63
2023/03/10 19:51:27;;;;;;;;;;;;;;;;;;5075258;28;7097;-65
2023/03/10 19:53:54;;;;;;;;;;;;;;;;;;5074682;28;6949;-65
2023/03/10 19:59:09;;;;;;;;;;;;;;;;;;5075304;28;6907;-64
2023/03/10 20:01:37;;;;;;;;;;;;;;;;;;5075574;28;7100;-65
2023/03/10 20:10:10;;;;;;;;;;;;;;;;;;5074662;28;6713;-65
2023/03/10 20:12:36;;;;;;;;;;;;;;;;;;5075001;28;7196;-65
2023/03/10 20:15:01;;;;;;;;;;;;;;;;;;5074773;28;7132;-65
2023/03/10 20:17:42;;;;;;;;;;;;;;;;;;5074668;28;6916;-65
2023/03/10 20:20:11;;;;;;;;;;;;;;;;;;5074627;28;7197;-65
2023/03/10 20:23:01;;;;;;;;;;;;;;;;;;5074634;28;7166;-65
2023/03/10 20:28:34;;;;;;;;;;;;;;;;;;5074495;28;6716;-65
2023/03/10 20:31:00;;;;;;;;;;;;;;;;;;5074605;28;7177;-65
2023/03/10 20:33:26;;;;;;;;;;;;;;;;;;5074548;28;7136;-65
2023/03/10 20:35:51;;;;;;;;;;;;;;;;;;5074649;28;6993;-65
2023/03/10 20:38:22;;;;;;;;;;;;;;;;;;5074566;28;6914;-65
2023/03/10 20:40:48;;;;;;;;;;;;;;;;;;5074202;28;7022;-65
2023/03/10 20:43:13;;;;;;;;;;;;;;;;;;5074509;28;7417;-65
2023/03/10 20:45:49;;;;;;;;;;;;;;;;;;5074433;28;7050;-65
2023/03/10 20:48:14;;;;;;;;;;;;;;;;;;5054422;28;7116;-65
2023/03/10 20:50:40;;;;;;;;;;;;;;;;;;5054408;28;6858;-65
2023/03/10 20:53:21;;;;;;;;;;;;;;;;;;5054928;28;7105;-65
2023/03/10 20:55:46;;;;;;;;;;;;;;;;;;5074074;28;6936;-66
2023/03/10 20:58:20;;;;;;;;;;;;;;;;;;5056193;28;7429;-65
2023/03/10 21:00:47;;;;;;;;;;;;;;;;;;5078187;28;6966;-65
2023/03/10 21:03:13;;;;;;;;;;;;;;;;;;5078072;28;7340;-65
2023/03/10 21:05:54;;;;;;;;;;;;;;;;;;5078401;28;7073;-65
2023/03/10 21:08:19;;;;;;;;;;;;;;;;;;5068566;28;7507;-65
2023/03/10 21:10:45;;;;;;;;;;;;;;;;;;5058402;28;7124;-66
2023/03/10 21:13:16;;;;;;;;;;;;;;;;;;5057978;28;7055;-65
2023/03/10 21:15:42;;;;;;;;;;;;;;;;;;5058284;28;7317;-65
2023/03/10 21:18:27;;;;;;;;;;;;;;;;;;5057910;28;7303;-65
2023/03/10 21:20:52;;;;;;;;;;;;;;;;;;5057936;28;7111;-65
2023/03/10 21:26:19;;;;;;;;;;;;;;;;;;5059357;28;7792;-65
2023/03/10 21:29:03;;;;;;;;;;;;;;;;;;5057666;28;7225;-65
2023/03/10 21:31:28;;;;;;;;;;;;;;;;;;5057663;28;7101;-65
2023/03/10 21:34:12;;;;;;;;;;;;;;;;;;5057213;28;6944;-65
2023/03/10 21:36:38;;;;;;;;;;;;;;;;;;5057599;28;7140;-65
2023/03/10 21:42:03;;;;;;;;;;;;;;;;;;5057935;28;7020;-65
2023/03/10 21:44:29;;;;;;;;;;;;;;;;;;5057206;28;6999;-65
2023/03/10 21:47:00;;;;;;;;;;;;;;;;;;5057463;28;7416;-65
2023/03/10 21:49:25;;;;;;;;;;;;;;;;;;5057374;28;7507;-65
2023/03/10 21:51:51;;;;;;;;;;;;;;;;;;5057223;28;7200;-65
2023/03/10 21:54:27;;;;;;;;;;;;;;;;;;5057228;28;7212;-65
2023/03/10 21:56:53;;;;;;;;;;;;;;;;;;5057224;28;6898;-65
2023/03/10 21:59:43;;;;;;;;;;;;;;;;;;5073118;28;7102;-65
2023/03/10 22:02:20;;;;;;;;;;;;;;;;;;5076520;28;7066;-65
2023/03/10 22:04:46;;;;;;;;;;;;;;;;;;5076526;28;7191;-65
2023/03/10 22:07:11;;;;;;;;;;;;;;;;;;5074174;28;7081;-66
2023/03/10 22:09:37;;;;;;;;;;;;;;;;;;5077031;28;7119;-65
2023/03/10 22:12:03;;;;;;;;;;;;;;;;;;5075455;28;7137;-65
2023/03/10 22:14:31;;;;;;;;;;;;;;;;;;5076950;28;6813;-66
2023/03/10 22:16:57;;;;;;;;;;;;;;;;;;5076511;28;7339;-66